sensor_id;sensor_type;location;lat;lon;timestamp;pressure;altitude;pressure_sealevel;temperature;humidity
77153;BME280;66124;51.146;17.072;2023-06-26T00:02:20;100259.13;;;18.34;65.86
77153;BME280;66124;51.146;17.072;2023-06-26T00:04:49;100253.14;;;18.31;66.04
77153;BME280;66124;51.146;17.072;2023-06-26T00:07:18;100251.69;;;18.29;66.07
77153;BME280;66124;51.146;17.072;2023-06-26T00:09:48;100253.65;;;18.26;66.31
77153;BME280;66124;51.146;17.072;2023-06-26T00:12:17;100253.86;;;18.24;66.48
77153;BME280;66124;51.146;17.072;2023-06-26T00:14:47;100252.70;;;18.22;66.48
77153;BME280;66124;51.146;17.072;2023-06-26T00:17:16;100256.05;;;18.20;66.65
77153;BME280;66124;51.146;17.072;2023-06-26T00:19:45;100253.54;;;18.18;66.75
77153;BME280;66124;51.146;17.072;2023-06-26T00:22:15;100250.35;;;18.14;66.88
77153;BME280;66124;51.146;17.072;2023-06-26T00:24:44;100252.69;;;18.11;66.96
77153;BME280;66124;51.146;17.072;2023-06-26T00:27:12;100249.73;;;18.09;67.14
77153;BME280;66124;51.146;17.072;2023-06-26T00:35:18;100243.41;;;18.06;67.46
77153;BME280;66124;51.146;17.072;2023-06-26T00:37:48;100240.23;;;18.02;67.57
77153;BME280;66124;51.146;17.072;2023-06-26T00:40:17;100242.59;;;17.99;67.34
77153;BME280;66124;51.146;17.072;2023-06-26T00:42:47;100243.70;;;17.97;67.43
77153;BME280;66124;51.146;17.072;2023-06-26T00:45:16;100240.38;;;17.94;67.44
77153;BME280;66124;51.146;17.072;2023-06-26T00:47:47;100238.17;;;17.92;67.60
77153;BME280;66124;51.146;17.072;2023-06-26T00:50:17;100235.99;;;17.90;67.65
77153;BME280;66124;51.146;17.072;2023-06-26T00:52:46;100235.24;;;17.88;67.79
77153;BME280;66124;51.146;17.072;2023-06-26T00:55:16;100236.46;;;17.86;67.71
77153;BME280;66124;51.146;17.072;2023-06-26T00:57:45;100237.11;;;17.84;67.86
77153;BME280;66124;51.146;17.072;2023-06-26T01:00:16;100235.45;;;17.82;67.98
77153;BME280;66124;51.146;17.072;2023-06-26T01:02:44;100235.35;;;17.80;68.06
77153;BME280;66124;51.146;17.072;2023-06-26T01:05:14;100232.73;;;17.75;68.14
77153;BME280;66124;51.146;17.072;2023-06-26T01:07:44;100231.63;;;17.74;68.54
77153;BME280;66124;51.146;17.072;2023-06-26T01:10:13;100233.22;;;17.74;68.50
77153;BME280;66124;51.146;17.072;2023-06-26T01:12:43;100230.90;;;17.73;68.62
77153;BME280;66124;51.146;17.072;2023-06-26T01:15:13;100229.23;;;17.72;68.75
77153;BME280;66124;51.146;17.072;2023-06-26T01:17:42;100230.58;;;17.72;68.88
77153;BME280;66124;51.146;17.072;2023-06-26T01:20:13;100230.32;;;17.70;69.24
77153;BME280;66124;51.146;17.072;2023-06-26T01:22:47;100227.08;;;17.68;69.34
77153;BME280;66124;51.146;17.072;2023-06-26T01:25:23;100229.84;;;17.66;69.38
77153;BME280;66124;51.146;17.072;2023-06-26T01:27:59;100227.52;;;17.63;69.42
77153;BME280;66124;51.146;17.072;2023-06-26T01:30:29;100228.20;;;17.60;69.47
77153;BME280;66124;51.146;17.072;2023-06-26T01:32:59;100223.52;;;17.57;69.67
77153;BME280;66124;51.146;17.072;2023-06-26T01:35:30;100226.05;;;17.53;69.84
77153;BME280;66124;51.146;17.072;2023-06-26T01:38:15;100224.73;;;17.50;70.05
77153;BME280;66124;51.146;17.072;2023-06-26T01:40:45;100225.05;;;17.46;70.23
77153;BME280;66124;51.146;17.072;2023-06-26T01:43:18;100223.30;;;17.42;70.38
77153;BME280;66124;51.146;17.072;2023-06-26T01:45:52;100221.20;;;17.40;70.32
77153;BME280;66124;51.146;17.072;2023-06-26T01:51:12;100216.63;;;17.37;70.49
77153;BME280;66124;51.146;17.072;2023-06-26T01:53:46;100213.20;;;17.32;70.73
77153;BME280;66124;51.146;17.072;2023-06-26T01:56:20;100213.80;;;17.31;70.85
77153;BME280;66124;51.146;17.072;2023-06-26T01:58:51;100206.23;;;17.29;70.64
77153;BME280;66124;51.146;17.072;2023-06-26T02:01:21;100205.25;;;17.29;70.97
77153;BME280;66124;51.146;17.072;2023-06-26T02:03:50;100204.28;;;17.28;71.02
77153;BME280;66124;51.146;17.072;2023-06-26T02:06:20;100199.59;;;17.28;71.01
77153;BME280;66124;51.146;17.072;2023-06-26T02:08:49;100199.06;;;17.28;71.07
77153;BME280;66124;51.146;17.072;2023-06-26T02:11:19;100199.36;;;17.29;70.90
77153;BME280;66124;51.146;17.072;2023-06-26T02:13:48;100198.97;;;17.29;71.17
77153;BME280;66124;51.146;17.072;2023-06-26T02:16:18;100199.03;;;17.27;71.20
77153;BME280;66124;51.146;17.072;2023-06-26T02:18:47;100202.82;;;17.26;71.28
77153;BME280;66124;51.146;17.072;2023-06-26T02:21:17;100202.20;;;17.23;71.30
77153;BME280;66124;51.146;17.072;2023-06-26T02:23:46;100208.99;;;17.20;71.50
77153;BME280;66124;51.146;17.072;2023-06-26T02:26:16;100205.35;;;17.17;71.62
77153;BME280;66124;51.146;17.072;2023-06-26T02:28:45;100201.81;;;17.14;71.59
77153;BME280;66124;51.146;17.072;2023-06-26T02:31:14;100202.61;;;17.12;71.66
77153;BME280;66124;51.146;17.072;2023-06-26T02:33:44;100206.95;;;17.10;71.69
77153;BME280;66124;51.146;17.072;2023-06-26T02:36:13;100206.09;;;17.08;71.74
77153;BME280;66124;51.146;17.072;2023-06-26T02:38:42;100207.98;;;17.08;71.90
77153;BME280;66124;51.146;17.072;2023-06-26T02:41:12;100205.33;;;17.06;71.87
77153;BME280;66124;51.146;17.072;2023-06-26T02:43:41;100210.06;;;17.06;71.76
77153;BME280;66124;51.146;17.072;2023-06-26T02:46:11;100212.65;;;17.05;72.11
77153;BME280;66124;51.146;17.072;2023-06-26T02:48:40;100211.98;;;17.03;72.05
77153;BME280;66124;51.146;17.072;2023-06-26T02:51:10;100209.02;;;17.03;71.78
77153;BME280;66124;51.146;17.072;2023-06-26T02:53:39;100212.87;;;17.03;71.62
77153;BME280;66124;51.146;17.072;2023-06-26T02:56:08;100212.41;;;17.04;71.93
77153;BME280;66124;51.146;17.072;2023-06-26T02:58:38;100207.77;;;17.05;71.63
77153;BME280;66124;51.146;17.072;2023-06-26T03:06:45;100206.38;;;17.16;71.63
77153;BME280;66124;51.146;17.072;2023-06-26T03:09:14;100209.02;;;17.16;71.68
77153;BME280;66124;51.146;17.072;2023-06-26T03:11:44;100207.05;;;17.17;71.55
77153;BME280;66124;51.146;17.072;2023-06-26T03:14:13;100208.80;;;17.19;71.34
77153;BME280;66124;51.146;17.072;2023-06-26T03:16:43;100210.89;;;17.20;71.41
77153;BME280;66124;51.146;17.072;2023-06-26T03:19:14;100203.80;;;17.20;71.45
77153;BME280;66124;51.146;17.072;2023-06-26T03:21:43;100205.41;;;17.25;71.34
77153;BME280;66124;51.146;17.072;2023-06-26T03:24:13;100200.89;;;17.27;71.47
77153;BME280;66124;51.146;17.072;2023-06-26T03:26:42;100201.40;;;17.28;71.32
77153;BME280;66124;51.146;17.072;2023-06-26T03:29:11;100200.80;;;17.30;71.39
77153;BME280;66124;51.146;17.072;2023-06-26T03:31:41;100194.24;;;17.32;71.46
77153;BME280;66124;51.146;17.072;2023-06-26T03:34:10;100192.17;;;17.35;71.11
77153;BME280;66124;51.146;17.072;2023-06-26T03:36:40;100194.45;;;17.39;71.34
77153;BME280;66124;51.146;17.072;2023-06-26T03:39:09;100190.38;;;17.44;71.21
77153;BME280;66124;51.146;17.072;2023-06-26T03:41:38;100192.37;;;17.48;71.22
77153;BME280;66124;51.146;17.072;2023-06-26T03:44:08;100191.64;;;17.54;71.27
77153;BME280;66124;51.146;17.072;2023-06-26T03:46:37;100193.66;;;17.59;70.94
77153;BME280;66124;51.146;17.072;2023-06-26T03:49:07;100197.95;;;17.64;71.02
77153;BME280;66124;51.146;17.072;2023-06-26T03:51:36;100197.59;;;17.69;70.73
77153;BME280;66124;51.146;17.072;2023-06-26T03:54:06;100194.73;;;17.73;70.93
77153;BME280;66124;51.146;17.072;2023-06-26T03:56:35;100196.70;;;17.77;70.96
77153;BME280;66124;51.146;17.072;2023-06-26T03:59:05;100197.25;;;17.81;70.81
77153;BME280;66124;51.146;17.072;2023-06-26T04:01:34;100196.20;;;17.86;70.88
77153;BME280;66124;51.146;17.072;2023-06-26T04:04:05;100197.02;;;17.92;70.79
77153;BME280;66124;51.146;17.072;2023-06-26T04:06:34;100198.70;;;17.98;70.93
77153;BME280;66124;51.146;17.072;2023-06-26T04:09:03;100197.59;;;18.03;70.86
77153;BME280;66124;51.146;17.072;2023-06-26T04:11:33;100195.35;;;18.05;70.82
77153;BME280;66124;51.146;17.072;2023-06-26T04:14:02;100196.52;;;18.11;70.75
77153;BME280;66124;51.146;17.072;2023-06-26T04:16:30;100198.39;;;18.17;70.78
77153;BME280;66124;51.146;17.072;2023-06-26T04:21:15;100194.68;;;18.36;70.76
77153;BME280;66124;51.146;17.072;2023-06-26T04:23:45;100196.00;;;18.45;70.50
77153;BME280;66124;51.146;17.072;2023-06-26T04:26:14;100198.98;;;18.56;70.42
77153;BME280;66124;51.146;17.072;2023-06-26T04:28:44;100198.50;;;18.67;70.27
77153;BME280;66124;51.146;17.072;2023-06-26T04:31:13;100195.11;;;18.77;70.12
77153;BME280;66124;51.146;17.072;2023-06-26T04:33:44;100194.88;;;18.90;69.99
77153;BME280;66124;51.146;17.072;2023-06-26T04:36:13;100193.52;;;19.01;69.82
77153;BME280;66124;51.146;17.072;2023-06-26T04:38:42;100187.52;;;19.12;69.57
77153;BME280;66124;51.146;17.072;2023-06-26T04:41:12;100184.20;;;19.23;69.42
77153;BME280;66124;51.146;17.072;2023-06-26T04:43:41;100181.28;;;19.33;69.07
77153;BME280;66124;51.146;17.072;2023-06-26T04:46:11;100178.50;;;19.43;68.82
77153;BME280;66124;51.146;17.072;2023-06-26T04:48:40;100185.48;;;19.52;68.68
77153;BME280;66124;51.146;17.072;2023-06-26T04:51:09;100187.05;;;19.59;68.57
77153;BME280;66124;51.146;17.072;2023-06-26T04:53:39;100188.71;;;19.68;68.51
77153;BME280;66124;51.146;17.072;2023-06-26T04:56:08;100189.22;;;19.75;68.52
77153;BME280;66124;51.146;17.072;2023-06-26T04:58:37;100184.84;;;19.84;68.56
77153;BME280;66124;51.146;17.072;2023-06-26T05:01:07;100189.05;;;19.95;68.48
77153;BME280;66124;51.146;17.072;2023-06-26T05:03:36;100186.37;;;20.04;68.29
77153;BME280;66124;51.146;17.072;2023-06-26T05:06:06;100184.42;;;20.11;68.16
77153;BME280;66124;51.146;17.072;2023-06-26T05:08:35;100184.30;;;20.23;67.89
77153;BME280;66124;51.146;17.072;2023-06-26T05:11:05;100182.84;;;20.35;67.62
77153;BME280;66124;51.146;17.072;2023-06-26T05:13:34;100181.42;;;20.47;67.35
77153;BME280;66124;51.146;17.072;2023-06-26T05:16:04;100180.39;;;20.56;67.07
77153;BME280;66124;51.146;17.072;2023-06-26T05:18:34;100178.33;;;20.62;66.89
77153;BME280;66124;51.146;17.072;2023-06-26T05:21:05;100179.13;;;20.69;66.74
77153;BME280;66124;51.146;17.072;2023-06-26T05:23:36;100178.63;;;20.78;66.55
77153;BME280;66124;51.146;17.072;2023-06-26T05:26:06;100181.48;;;20.91;66.36
77153;BME280;66124;51.146;17.072;2023-06-26T05:28:37;100183.02;;;21.02;65.85
77153;BME280;66124;51.146;17.072;2023-06-26T05:31:06;100182.73;;;21.14;65.30
77153;BME280;66124;51.146;17.072;2023-06-26T05:33:34;100174.20;;;21.23;64.86
77153;BME280;66124;51.146;17.072;2023-06-26T05:41:13;100175.42;;;21.60;64.03
77153;BME280;66124;51.146;17.072;2023-06-26T05:43:43;100173.18;;;21.71;63.75
77153;BME280;66124;51.146;17.072;2023-06-26T05:46:12;100174.55;;;21.82;63.37
77153;BME280;66124;51.146;17.072;2023-06-26T05:48:41;100174.03;;;21.93;63.19
77153;BME280;66124;51.146;17.072;2023-06-26T05:51:13;100176.30;;;22.02;62.84
77153;BME280;66124;51.146;17.072;2023-06-26T05:53:43;100175.91;;;22.06;62.72
77153;BME280;66124;51.146;17.072;2023-06-26T05:56:14;100175.52;;;22.09;62.42
77153;BME280;66124;51.146;17.072;2023-06-26T05:58:44;100174.89;;;22.17;62.19
77153;BME280;66124;51.146;17.072;2023-06-26T06:01:14;100176.02;;;22.24;62.11
77153;BME280;66124;51.146;17.072;2023-06-26T06:03:44;100179.11;;;22.30;62.07
77153;BME280;66124;51.146;17.072;2023-06-26T06:06:13;100177.79;;;22.37;62.03
77153;BME280;66124;51.146;17.072;2023-06-26T06:08:43;100180.44;;;22.47;61.96
77153;BME280;66124;51.146;17.072;2023-06-26T06:11:12;100183.20;;;22.55;61.75
77153;BME280;66124;51.146;17.072;2023-06-26T06:13:41;100181.71;;;22.64;61.39
77153;BME280;66124;51.146;17.072;2023-06-26T06:16:11;100181.52;;;22.76;61.06
77153;BME280;66124;51.146;17.072;2023-06-26T06:18:40;100182.72;;;22.87;60.63
77153;BME280;66124;51.146;17.072;2023-06-26T06:21:10;100183.40;;;22.95;59.93
77153;BME280;66124;51.146;17.072;2023-06-26T06:23:39;100180.20;;;23.00;59.58
77153;BME280;66124;51.146;17.072;2023-06-26T06:26:08;100175.88;;;23.07;59.33
77153;BME280;66124;51.146;17.072;2023-06-26T06:28:39;100174.77;;;23.15;58.87
77153;BME280;66124;51.146;17.072;2023-06-26T06:31:09;100174.11;;;23.22;58.62
77153;BME280;66124;51.146;17.072;2023-06-26T06:33:38;100179.58;;;23.29;58.51
77153;BME280;66124;51.146;17.072;2023-06-26T06:36:08;100180.39;;;23.38;58.28
77153;BME280;66124;51.146;17.072;2023-06-26T06:38:37;100180.21;;;23.46;57.98
77153;BME280;66124;51.146;17.072;2023-06-26T06:41:07;100179.56;;;23.51;57.59
77153;BME280;66124;51.146;17.072;2023-06-26T06:43:36;100178.34;;;23.53;57.66
77153;BME280;66124;51.146;17.072;2023-06-26T06:46:05;100178.63;;;23.57;57.57
77153;BME280;66124;51.146;17.072;2023-06-26T06:48:35;100175.63;;;23.66;57.35
77153;BME280;66124;51.146;17.072;2023-06-26T06:51:05;100179.85;;;23.76;56.82
77153;BME280;66124;51.146;17.072;2023-06-26T06:53:34;100178.57;;;23.86;56.44
77153;BME280;66124;51.146;17.072;2023-06-26T06:59:09;100178.46;;;24.08;56.09
77153;BME280;66124;51.146;17.072;2023-06-26T07:01:40;100173.84;;;24.11;55.91
77153;BME280;66124;51.146;17.072;2023-06-26T07:04:09;100171.04;;;24.15;55.90
77153;BME280;66124;51.146;17.072;2023-06-26T07:06:38;100167.58;;;24.20;55.61
77153;BME280;66124;51.146;17.072;2023-06-26T07:09:08;100168.88;;;24.26;55.43
77153;BME280;66124;51.146;17.072;2023-06-26T07:11:37;100169.84;;;24.33;55.16
77153;BME280;66124;51.146;17.072;2023-06-26T07:14:07;100165.64;;;24.40;54.88
77153;BME280;66124;51.146;17.072;2023-06-26T07:16:36;100167.08;;;24.51;54.55
77153;BME280;66124;51.146;17.072;2023-06-26T07:19:06;100167.28;;;24.59;54.27
77153;BME280;66124;51.146;17.072;2023-06-26T07:21:35;100161.77;;;24.67;54.06
77153;BME280;66124;51.146;17.072;2023-06-26T07:24:05;100165.05;;;24.76;53.46
77153;BME280;66124;51.146;17.072;2023-06-26T07:26:34;100164.67;;;24.82;52.93
77153;BME280;66124;51.146;17.072;2023-06-26T07:29:04;100161.31;;;24.86;52.73
77153;BME280;66124;51.146;17.072;2023-06-26T07:31:33;100160.38;;;24.91;52.35
77153;BME280;66124;51.146;17.072;2023-06-26T07:34:03;100157.33;;;24.99;52.23
77153;BME280;66124;51.146;17.072;2023-06-26T07:36:32;100155.80;;;25.06;51.97
77153;BME280;66124;51.146;17.072;2023-06-26T07:39:02;100155.77;;;25.10;52.02
77153;BME280;66124;51.146;17.072;2023-06-26T07:41:31;100156.95;;;25.15;51.72
77153;BME280;66124;51.146;17.072;2023-06-26T07:44:00;100156.65;;;25.18;51.85
77153;BME280;66124;51.146;17.072;2023-06-26T07:46:30;100159.30;;;25.20;51.25
77153;BME280;66124;51.146;17.072;2023-06-26T07:49:00;100160.70;;;25.20;50.92
77153;BME280;66124;51.146;17.072;2023-06-26T07:51:29;100158.80;;;25.20;50.77
77153;BME280;66124;51.146;17.072;2023-06-26T07:53:58;100159.52;;;25.26;50.59
77153;BME280;66124;51.146;17.072;2023-06-26T07:56:28;100159.78;;;25.32;50.02
77153;BME280;66124;51.146;17.072;2023-06-26T07:58:57;100160.16;;;25.31;49.86
77153;BME280;66124;51.146;17.072;2023-06-26T08:01:27;100161.95;;;25.32;49.87
77153;BME280;66124;51.146;17.072;2023-06-26T08:03:56;100159.84;;;25.32;49.66
77153;BME280;66124;51.146;17.072;2023-06-26T08:06:25;100152.58;;;25.34;49.40
77153;BME280;66124;51.146;17.072;2023-06-26T08:08:55;100152.66;;;25.40;49.22
77153;BME280;66124;51.146;17.072;2023-06-26T08:11:22;100152.56;;;25.46;48.72
77153;BME280;66124;51.146;17.072;2023-06-26T08:19:51;100142.31;;;25.61;48.10
77153;BME280;66124;51.146;17.072;2023-06-26T08:22:20;100141.55;;;25.61;47.97
77153;BME280;66124;51.146;17.072;2023-06-26T08:24:50;100140.87;;;25.67;47.71
77153;BME280;66124;51.146;17.072;2023-06-26T08:27:19;100141.73;;;25.76;47.96
77153;BME280;66124;51.146;17.072;2023-06-26T08:29:49;100137.66;;;25.84;47.66
77153;BME280;66124;51.146;17.072;2023-06-26T08:32:19;100139.97;;;25.88;47.13
77153;BME280;66124;51.146;17.072;2023-06-26T08:34:48;100141.05;;;25.89;46.75
77153;BME280;66124;51.146;17.072;2023-06-26T08:37:18;100139.38;;;25.88;46.32
77153;BME280;66124;51.146;17.072;2023-06-26T08:39:48;100138.02;;;25.85;45.36
77153;BME280;66124;51.146;17.072;2023-06-26T08:42:17;100126.80;;;25.77;44.62
77153;BME280;66124;51.146;17.072;2023-06-26T08:44:47;100138.38;;;25.85;44.42
77153;BME280;66124;51.146;17.072;2023-06-26T08:47:16;100135.70;;;25.87;44.94
77153;BME280;66124;51.146;17.072;2023-06-26T08:49:51;100131.83;;;25.91;44.41
77153;BME280;66124;51.146;17.072;2023-06-26T08:52:27;100131.08;;;25.92;44.32
77153;BME280;66124;51.146;17.072;2023-06-26T08:54:59;100129.33;;;25.94;43.70
77153;BME280;66124;51.146;17.072;2023-06-26T08:57:32;100126.36;;;25.99;43.77
77153;BME280;66124;51.146;17.072;2023-06-26T09:00:02;100127.08;;;26.05;43.52
77153;BME280;66124;51.146;17.072;2023-06-26T09:02:32;100121.74;;;26.08;43.11
77153;BME280;66124;51.146;17.072;2023-06-26T09:05:03;100123.05;;;26.09;43.04
77153;BME280;66124;51.146;17.072;2023-06-26T09:07:32;100122.89;;;26.11;42.60
77153;BME280;66124;51.146;17.072;2023-06-26T09:10:02;100124.56;;;26.08;41.96
77153;BME280;66124;51.146;17.072;2023-06-26T09:12:32;100123.63;;;26.03;41.20
77153;BME280;66124;51.146;17.072;2023-06-26T09:15:02;100125.17;;;25.99;40.78
77153;BME280;66124;51.146;17.072;2023-06-26T09:17:39;100124.04;;;26.01;41.16
77153;BME280;66124;51.146;17.072;2023-06-26T09:20:10;100122.17;;;26.08;40.91
77153;BME280;66124;51.146;17.072;2023-06-26T09:22:40;100119.00;;;26.11;40.32
77153;BME280;66124;51.146;17.072;2023-06-26T09:25:11;100118.44;;;26.12;40.21
77153;BME280;66124;51.146;17.072;2023-06-26T09:27:40;100115.28;;;26.15;40.16
77153;BME280;66124;51.146;17.072;2023-06-26T09:30:11;100106.61;;;26.22;40.04
77153;BME280;66124;51.146;17.072;2023-06-26T09:32:39;100105.05;;;26.28;40.11
77153;BME280;66124;51.146;17.072;2023-06-26T09:40:15;100108.80;;;26.58;40.80
77153;BME280;66124;51.146;17.072;2023-06-26T09:42:44;100106.17;;;26.65;40.44
77153;BME280;66124;51.146;17.072;2023-06-26T09:45:21;100097.74;;;26.69;39.95
77153;BME280;66124;51.146;17.072;2023-06-26T09:47:50;100097.78;;;26.77;40.21
77153;BME280;66124;51.146;17.072;2023-06-26T09:50:29;100094.32;;;26.82;40.16
77153;BME280;66124;51.146;17.072;2023-06-26T09:52:58;100094.19;;;26.88;40.10
77153;BME280;66124;51.146;17.072;2023-06-26T09:55:28;100095.63;;;26.91;39.70
77153;BME280;66124;51.146;17.072;2023-06-26T09:58:00;100089.91;;;26.97;39.61
77153;BME280;66124;51.146;17.072;2023-06-26T10:00:31;100092.89;;;27.05;39.76
77153;BME280;66124;51.146;17.072;2023-06-26T10:03:01;100090.42;;;27.16;39.18
77153;BME280;66124;51.146;17.072;2023-06-26T10:05:32;100088.67;;;27.28;38.73
77153;BME280;66124;51.146;17.072;2023-06-26T10:08:02;100084.72;;;27.37;38.64
77153;BME280;66124;51.146;17.072;2023-06-26T10:10:35;100080.85;;;27.43;38.37
77153;BME280;66124;51.146;17.072;2023-06-26T10:13:11;100078.18;;;27.47;39.01
77153;BME280;66124;51.146;17.072;2023-06-26T10:15:43;100082.03;;;27.58;38.91
77153;BME280;66124;51.146;17.072;2023-06-26T10:18:14;100080.65;;;27.70;38.84
77153;BME280;66124;51.146;17.072;2023-06-26T10:20:47;100080.95;;;27.74;38.28
77153;BME280;66124;51.146;17.072;2023-06-26T10:23:19;100078.51;;;27.72;38.23
77153;BME280;66124;51.146;17.072;2023-06-26T10:25:51;100076.15;;;27.66;38.55
77153;BME280;66124;51.146;17.072;2023-06-26T10:28:21;100071.54;;;27.60;38.90
77153;BME280;66124;51.146;17.072;2023-06-26T10:30:52;100067.14;;;27.61;39.13
77153;BME280;66124;51.146;17.072;2023-06-26T10:33:23;100065.39;;;27.65;38.89
77153;BME280;66124;51.146;17.072;2023-06-26T10:35:53;100062.21;;;27.61;39.01
77153;BME280;66124;51.146;17.072;2023-06-26T10:38:22;100062.52;;;27.58;39.26
77153;BME280;66124;51.146;17.072;2023-06-26T10:41:13;100058.95;;;27.65;39.03
77153;BME280;66124;51.146;17.072;2023-06-26T10:43:43;100057.41;;;27.69;39.14
77153;BME280;66124;51.146;17.072;2023-06-26T10:46:16;100056.80;;;27.72;39.14
77153;BME280;66124;51.146;17.072;2023-06-26T10:49:00;100057.98;;;27.73;39.16
77153;BME280;66124;51.146;17.072;2023-06-26T10:51:29;100056.28;;;27.79;39.17
77153;BME280;66124;51.146;17.072;2023-06-26T11:02:29;100050.88;;;28.04;38.91
77153;BME280;66124;51.146;17.072;2023-06-26T11:05:25;100049.08;;;28.19;38.97
77153;BME280;66124;51.146;17.072;2023-06-26T11:08:08;100045.98;;;28.37;38.91
77153;BME280;66124;51.146;17.072;2023-06-26T11:10:52;100042.45;;;28.46;38.24
77153;BME280;66124;51.146;17.072;2023-06-26T11:13:21;100044.94;;;28.54;38.23
77153;BME280;66124;51.146;17.072;2023-06-26T11:15:51;100044.28;;;28.67;38.10
77153;BME280;66124;51.146;17.072;2023-06-26T11:18:21;100040.20;;;28.80;38.14
77153;BME280;66124;51.146;17.072;2023-06-26T11:20:51;100039.09;;;28.90;37.83
77153;BME280;66124;51.146;17.072;2023-06-26T11:23:23;100036.05;;;28.96;37.23
77153;BME280;66124;51.146;17.072;2023-06-26T11:25:53;100032.96;;;28.88;37.06
77153;BME280;66124;51.146;17.072;2023-06-26T11:28:24;100026.66;;;28.83;37.01
77153;BME280;66124;51.146;17.072;2023-06-26T11:30:53;100023.06;;;28.87;36.96
77153;BME280;66124;51.146;17.072;2023-06-26T11:33:28;100021.33;;;29.09;37.16
77153;BME280;66124;51.146;17.072;2023-06-26T11:36:09;100017.40;;;29.51;36.98
77153;BME280;66124;51.146;17.072;2023-06-26T11:38:40;100013.46;;;30.06;36.57
77153;BME280;66124;51.146;17.072;2023-06-26T11:41:09;100009.08;;;30.53;36.25
77153;BME280;66124;51.146;17.072;2023-06-26T11:43:39;100008.20;;;30.94;35.00
77153;BME280;66124;51.146;17.072;2023-06-26T11:46:08;100000.98;;;31.07;34.67
77153;BME280;66124;51.146;17.072;2023-06-26T11:48:38;99999.83;;;31.06;34.46
77153;BME280;66124;51.146;17.072;2023-06-26T11:51:08;99999.70;;;30.90;34.19
77153;BME280;66124;51.146;17.072;2023-06-26T11:53:42;99999.22;;;30.72;34.33
77153;BME280;66124;51.146;17.072;2023-06-26T11:56:13;100000.02;;;30.63;34.24
77153;BME280;66124;51.146;17.072;2023-06-26T11:59:03;99998.34;;;30.54;34.05
77153;BME280;66124;51.146;17.072;2023-06-26T12:01:35;99994.98;;;30.56;34.02
77153;BME280;66124;51.146;17.072;2023-06-26T12:04:06;99988.30;;;30.89;34.04
77153;BME280;66124;51.146;17.072;2023-06-26T12:06:37;99980.09;;;31.45;33.67
77153;BME280;66124;51.146;17.072;2023-06-26T12:09:06;99978.16;;;31.95;32.80
77153;BME280;66124;51.146;17.072;2023-06-26T12:11:38;99980.36;;;32.31;32.31
77153;BME280;66124;51.146;17.072;2023-06-26T12:14:06;99983.69;;;32.56;31.59
77153;BME280;66124;51.146;17.072;2023-06-26T12:24:23;99960.61;;;33.49;30.20
77153;BME280;66124;51.146;17.072;2023-06-26T12:26:54;99959.23;;;33.98;29.99
77153;BME280;66124;51.146;17.072;2023-06-26T12:29:31;99958.45;;;34.58;29.63
77153;BME280;66124;51.146;17.072;2023-06-26T12:32:01;99956.15;;;35.11;29.03
77153;BME280;66124;51.146;17.072;2023-06-26T12:34:33;99956.34;;;35.63;28.44
77153;BME280;66124;51.146;17.072;2023-06-26T12:37:04;99948.52;;;35.91;27.71
77153;BME280;66124;51.146;17.072;2023-06-26T12:39:48;99949.66;;;35.90;27.65
77153;BME280;66124;51.146;17.072;2023-06-26T12:42:19;99945.24;;;36.04;27.45
77153;BME280;66124;51.146;17.072;2023-06-26T12:44:49;99948.69;;;36.13;27.31
77153;BME280;66124;51.146;17.072;2023-06-26T12:47:24;99949.88;;;36.30;26.87
77153;BME280;66124;51.146;17.072;2023-06-26T12:49:54;99945.70;;;36.36;26.65
77153;BME280;66124;51.146;17.072;2023-06-26T12:52:23;99942.69;;;36.58;26.74
77153;BME280;66124;51.146;17.072;2023-06-26T12:54:55;99935.55;;;36.87;26.55
77153;BME280;66124;51.146;17.072;2023-06-26T12:57:24;99931.23;;;37.21;26.29
77153;BME280;66124;51.146;17.072;2023-06-26T12:59:54;99925.48;;;37.54;25.72
77153;BME280;66124;51.146;17.072;2023-06-26T13:02:23;99926.54;;;37.78;24.94
77153;BME280;66124;51.146;17.072;2023-06-26T13:04:53;99921.22;;;37.70;24.75
77153;BME280;66124;51.146;17.072;2023-06-26T13:07:22;99917.98;;;37.60;24.89
77153;BME280;66124;51.146;17.072;2023-06-26T13:09:52;99913.56;;;37.60;24.94
77153;BME280;66124;51.146;17.072;2023-06-26T13:12:21;99905.82;;;37.85;24.86
77153;BME280;66124;51.146;17.072;2023-06-26T13:14:51;99910.27;;;38.12;24.47
77153;BME280;66124;51.146;17.072;2023-06-26T13:17:20;99908.27;;;37.95;24.02
77153;BME280;66124;51.146;17.072;2023-06-26T13:19:50;99901.93;;;37.74;24.30
77153;BME280;66124;51.146;17.072;2023-06-26T13:22:19;99903.77;;;37.90;23.77
77153;BME280;66124;51.146;17.072;2023-06-26T13:24:48;99896.69;;;37.99;23.77
77153;BME280;66124;51.146;17.072;2023-06-26T13:27:18;99892.56;;;37.96;23.82
77153;BME280;66124;51.146;17.072;2023-06-26T13:29:48;99889.45;;;38.10;23.34
77153;BME280;66124;51.146;17.072;2023-06-26T13:32:17;99881.67;;;37.85;23.43
77153;BME280;66124;51.146;17.072;2023-06-26T13:34:47;99884.14;;;37.60;23.34
77153;BME280;66124;51.146;17.072;2023-06-26T13:37:16;99880.77;;;37.37;23.82
77153;BME280;66124;51.146;17.072;2023-06-26T13:49:01;99865.98;;;37.29;23.61
77153;BME280;66124;51.146;17.072;2023-06-26T13:51:30;99862.91;;;37.29;23.88
77153;BME280;66124;51.146;17.072;2023-06-26T13:54:00;99856.23;;;37.46;23.48
77153;BME280;66124;51.146;17.072;2023-06-26T13:56:29;99851.52;;;37.79;23.85
77153;BME280;66124;51.146;17.072;2023-06-26T13:58:58;99851.05;;;38.31;23.32